Time;durP1;ratioP1;P1;durP2;ratioP2;P2;SDS_P1;SDS_P2;PMS_P1;PMS_P2;Temp;Humidity;BMP_temperature;BMP_pressure;BME280_temperature;BME280_humidity;BME280_pressure;Samples;Min_cycle;Max_cycle;Signal;HPM_P1;HPM_P2
2023/04/17 00:01:54;;;;;;;38.10;20.20;;;;;;;7.23;79.75;98675.34;105284;1256;97993;-64
2023/04/17 00:04:21;;;;;;;41.60;20.80;;;;;;;7.25;79.32;98673.74;105221;1258;112394;-64
2023/04/17 00:06:52;;;;;;;35.50;20.30;;;;;;;7.26;79.64;98671.23;105297;1260;99212;-66
2023/04/17 00:09:19;;;;;;;36.50;19.90;;;;;;;7.27;79.48;98670.84;105235;1267;107616;-65
2023/04/17 00:11:47;;;;;;;33.80;19.30;;;;;;;7.25;79.92;98670.09;105294;1264;97864;-64
2023/04/17 00:14:14;;;;;;;36.60;20.40;;;;;;;7.20;80.03;98664.15;105333;1267;98014;-65
2023/04/17 00:16:43;;;;;;;40.20;20.00;;;;;;;7.17;80.14;98664.30;105224;1267;111967;-65
2023/04/17 00:19:12;;;;;;;37.10;19.30;;;;;;;7.13;80.15;98663.98;105244;1267;98716;-64
2023/04/17 00:21:44;;;;;;;49.00;22.80;;;;;;;7.08;80.54;98665.16;105287;1257;107520;-65
2023/04/17 00:24:16;;;;;;;46.30;22.10;;;;;;;7.06;80.72;98667.86;105034;1270;97905;-65
2023/04/17 00:26:49;;;;;;;36.70;18.80;;;;;;;7.04;80.54;98666.95;105031;1267;98204;-65
2023/04/17 00:29:18;;;;;;;34.90;18.40;;;;;;;6.99;80.86;98666.73;105242;1254;112134;-65
2023/04/17 00:31:48;;;;;;;35.30;19.30;;;;;;;6.97;80.96;98667.47;105252;1257;99769;-65
2023/04/17 00:34:19;;;;;;;34.90;18.10;;;;;;;6.95;81.16;98667.64;105235;1258;109304;-65
2023/04/17 00:36:48;;;;;;;28.80;17.60;;;;;;;6.94;80.86;98666.79;105080;1258;98107;-65
2023/04/17 00:39:19;;;;;;;30.50;16.40;;;;;;;6.95;81.36;98669.55;105011;1263;99720;-66
2023/04/17 00:41:51;;;;;;;33.10;16.40;;;;;;;6.96;81.23;98666.00;104886;1260;111373;-64
2023/04/17 00:44:19;;;;;;;28.70;16.10;;;;;;;6.98;80.93;98665.15;105141;1267;97907;-65
2023/04/17 00:46:45;;;;;;;36.40;17.90;;;;;;;6.99;80.89;98668.85;105285;1257;98430;-65
2023/04/17 00:49:13;;;;;;;71.60;25.70;;;;;;;6.95;81.55;98670.64;105246;1254;97967;-65
2023/04/17 00:51:40;;;;;;;42.70;20.20;;;;;;;6.94;81.28;98676.92;105265;1270;97931;-65
2023/04/17 00:54:09;;;;;;;30.30;16.80;;;;;;;6.94;81.29;98679.76;105009;1258;97979;-64
2023/04/17 00:56:37;;;;;;;37.50;20.20;;;;;;;6.95;81.52;98678.48;104736;1271;99140;-64
2023/04/17 00:59:06;;;;;;;34.20;17.70;;;;;;;6.96;81.68;98677.88;105091;1264;108484;-64
2023/04/17 01:01:33;;;;;;;35.20;18.60;;;;;;;6.95;81.68;98678.88;105061;1267;99211;-65
2023/04/17 01:04:00;;;;;;;32.50;17.20;;;;;;;6.93;81.49;98682.55;105205;1258;97897;-66
2023/04/17 01:06:28;;;;;;;28.60;15.70;;;;;;;6.89;81.54;98682.98;105246;1257;98337;-65
2023/04/17 01:08:55;;;;;;;24.60;14.10;;;;;;;6.83;80.96;98685.16;105268;1258;97919;-65
2023/04/17 01:11:22;;;;;;;25.50;15.00;;;;;;;6.75;81.00;98686.81;105249;1264;97970;-65
2023/04/17 01:13:50;;;;;;;25.80;14.50;;;;;;;6.64;81.21;98680.98;105140;1264;98592;-65
2023/04/17 01:16:18;;;;;;;29.90;14.60;;;;;;;6.59;81.21;98683.91;105230;1256;97956;-65
2023/04/17 01:18:47;;;;;;;25.80;15.60;;;;;;;6.55;81.27;98686.52;105336;1267;112615;-65
2023/04/17 01:21:15;;;;;;;32.00;16.50;;;;;;;6.56;81.68;98688.90;105286;1258;99386;-65
2023/04/17 01:23:50;;;;;;;33.10;18.10;;;;;;;6.57;81.86;98688.40;105227;1258;108060;-65
2023/04/17 01:26:20;;;;;;;43.00;20.10;;;;;;;6.55;82.06;98686.78;105203;1267;97977;-65
2023/04/17 01:28:58;;;;;;;30.90;16.60;;;;;;;6.53;82.13;98683.30;105551;1255;98694;-66
2023/04/17 01:31:29;;;;;;;38.70;18.20;;;;;;;6.51;82.62;98683.60;105276;1267;112473;-65
2023/04/17 01:33:56;;;;;;;;;;;;;;;6.47;82.18;98679.01;105056;1261;99179;-65
2023/04/17 01:36:23;;;;;;;27.90;15.40;;;;;;;6.38;82.21;98676.74;105260;1258;98031;-65
2023/04/17 01:38:52;;;;;;;29.30;16.30;;;;;;;6.36;82.55;98677.80;105259;1257;98570;-66
2023/04/17 01:41:29;;;;;;;28.10;15.80;;;;;;;6.31;82.51;98676.00;105232;1262;98393;-66
2023/04/17 01:44:03;;;;;;;30.40;16.30;;;;;;;6.24;82.55;98669.34;105036;1263;111325;-66
2023/04/17 01:46:35;;;;;;;27.90;16.60;;;;;;;6.21;82.76;98671.16;105311;1258;99146;-66
2023/04/17 01:49:02;;;;;;;27.10;16.50;;;;;;;6.19;83.02;98670.91;105228;1267;98811;-66
2023/04/17 01:51:30;;;;;;;30.40;16.40;;;;;;;6.17;83.18;98672.34;105120;1258;97966;-65
2023/04/17 01:53:57;;;;;;;30.20;16.70;;;;;;;6.16;83.03;98669.30;105165;1257;98738;-66
2023/04/17 01:56:24;;;;;;;28.40;17.10;;;;;;;6.15;83.26;98668.21;105281;1271;97896;-65
2023/04/17 01:58:52;;;;;;;31.40;16.20;;;;;;;6.12;83.18;98670.00;105260;1267;97873;-65
2023/04/17 02:01:19;;;;;;;28.30;16.00;;;;;;;6.14;83.57;98671.77;105199;1257;97977;-66
2023/04/17 02:03:46;;;;;;;32.80;17.00;;;;;;;6.20;83.75;98674.77;105211;1256;97884;-66
2023/04/17 02:06:15;;;;;;;27.80;15.60;;;;;;;6.22;83.25;98676.33;105249;1258;97887;-66
2023/04/17 02:08:42;;;;;;;29.90;16.90;;;;;;;6.20;83.28;98685.77;105183;1258;112064;-65
2023/04/17 02:11:09;;;;;;;37.00;18.90;;;;;;;6.16;83.23;98689.83;105175;1254;97914;-66
2023/04/17 02:13:36;;;;;;;33.60;16.80;;;;;;;6.12;83.51;98687.41;105155;1259;98509;-65
2023/04/17 02:16:03;;;;;;;30.20;17.40;;;;;;;6.07;83.32;98683.35;105128;1256;97880;-66
2023/04/17 02:18:30;;;;;;;30.80;16.30;;;;;;;5.97;83.51;98685.14;105208;1258;97978;-66
2023/04/17 02:20:57;;;;;;;29.00;17.00;;;;;;;5.90;83.60;98686.54;105062;1265;97994;-66
2023/04/17 02:23:24;;;;;;;33.00;17.00;;;;;;;5.88;83.68;98686.27;105230;1264;97959;-66
2023/04/17 02:25:51;;;;;;;29.80;17.20;;;;;;;5.91;83.93;98686.11;105171;1269;99134;-67
2023/04/17 02:28:18;;;;;;;29.60;17.10;;;;;;;5.91;83.51;98683.15;105291;1264;97999;-65
2023/04/17 02:30:45;;;;;;;28.40;16.10;;;;;;;5.89;83.57;98681.36;104822;1271;111855;-65
2023/04/17 02:33:13;;;;;;;29.80;16.50;;;;;;;5.88;83.57;98678.65;105144;1267;97877;-65
2023/04/17 02:35:40;;;;;;;27.40;15.70;;;;;;;5.87;83.75;98681.16;105007;1256;99233;-66
2023/04/17 02:38:07;;;;;;;26.80;15.50;;;;;;;5.89;83.80;98681.37;105233;1255;97935;-66
2023/04/17 02:40:34;;;;;;;26.10;15.50;;;;;;;5.88;83.98;98681.17;105273;1267;99202;-65
2023/04/17 02:43:02;;;;;;;29.80;16.20;;;;;;;5.85;83.75;98678.85;105253;1256;97989;-65
2023/04/17 02:45:29;;;;;;;26.70;15.10;;;;;;;5.77;83.63;98681.02;105233;1257;97976;-66
2023/04/17 02:47:56;;;;;;;27.70;16.10;;;;;;;5.73;83.79;98682.39;105213;1267;97932;-65
2023/04/17 02:50:23;;;;;;;26.70;14.90;;;;;;;5.69;83.93;98680.25;105116;1267;97970;-65
2023/04/17 02:52:51;;;;;;;28.20;16.20;;;;;;;5.61;84.08;98686.39;105236;1255;97906;-65
2023/04/17 02:55:18;;;;;;;27.00;15.90;;;;;;;5.53;84.11;98684.13;105259;1267;98300;-65
2023/04/17 02:57:45;;;;;;;27.60;16.10;;;;;;;5.51;84.45;98689.86;105243;1257;98824;-65
2023/04/17 03:00:13;;;;;;;31.70;17.10;;;;;;;5.50;84.21;98691.70;105251;1257;97916;-66
2023/04/17 03:02:40;;;;;;;25.30;16.00;;;;;;;5.53;84.52;98693.05;105177;1258;97876;-66
2023/04/17 03:05:10;;;;;;;30.20;16.00;;;;;;;5.56;84.54;98694.02;105238;1257;99180;-66
2023/04/17 03:07:37;;;;;;;26.40;16.40;;;;;;;5.60;84.62;98691.94;104999;1256;109548;-66
2023/04/17 03:10:05;;;;;;;27.20;16.20;;;;;;;5.62;84.48;98688.11;105184;1267;97912;-65
2023/04/17 03:12:32;;;;;;;25.90;16.10;;;;;;;5.65;84.24;98691.27;105160;1258;108608;-66
2023/04/17 03:15:00;;;;;;;25.70;15.40;;;;;;;5.62;84.16;98690.71;105177;1258;99186;-66
2023/04/17 03:17:27;;;;;;;33.00;16.10;;;;;;;5.59;84.12;98689.59;105264;1257;97823;-65
2023/04/17 03:19:54;;;;;;;27.10;16.00;;;;;;;5.54;84.38;98693.80;105095;1257;97925;-64
2023/04/17 03:22:22;;;;;;;28.20;15.60;;;;;;;5.49;84.48;98696.77;105229;1258;97902;-65
2023/04/17 03:24:49;;;;;;;27.70;16.50;;;;;;;5.44;84.55;98699.66;105157;1256;98348;-65
2023/04/17 03:27:22;;;;;;;29.10;18.00;;;;;;;5.37;84.44;98697.41;105084;1258;98595;-65
2023/04/17 03:29:51;;;;;;;32.50;19.50;;;;;;;5.32;84.76;98696.30;105147;1254;98405;-65
2023/04/17 03:32:18;;;;;;;30.70;19.00;;;;;;;5.31;84.75;98696.46;105212;1264;111952;-65
2023/04/17 03:34:46;;;;;;;36.60;19.80;;;;;;;5.31;84.82;98699.08;105186;1256;97881;-65
2023/04/17 03:37:13;;;;;;;31.00;18.80;;;;;;;5.30;84.78;98698.43;105237;1254;107712;-65
2023/04/17 03:39:40;;;;;;;31.90;17.60;;;;;;;5.29;84.79;98699.79;105173;1258;98789;-64
2023/04/17 03:42:10;;;;;;;30.50;16.70;;;;;;;5.26;84.78;98706.69;105059;1256;99207;-64
2023/04/17 03:44:38;;;;;;;32.20;17.50;;;;;;;5.21;84.64;98712.52;105211;1258;112131;-70
2023/04/17 03:47:05;;;;;;;25.60;15.30;;;;;;;5.18;84.99;98716.98;105083;1257;99221;-68
2023/04/17 03:49:32;;;;;;;25.20;15.20;;;;;;;5.21;85.34;98715.46;105295;1253;97886;-64
2023/04/17 03:52:02;;;;;;;27.90;15.90;;;;;;;5.18;85.21;98718.80;105239;1252;97899;-65
2023/04/17 03:54:34;;;;;;;27.50;16.10;;;;;;;5.15;85.34;98720.96;105286;1256;97887;-65
2023/04/17 03:57:02;;;;;;;27.10;15.60;;;;;;;5.10;85.48;98719.51;104828;1262;112939;-65
2023/04/17 03:59:30;;;;;;;28.10;16.10;;;;;;;5.07;85.78;98720.27;104757;1264;98929;-65
2023/04/17 04:01:58;;;;;;;27.90;16.80;;;;;;;5.05;86.12;98723.88;104601;1262;107700;-68
2023/04/17 04:04:25;;;;;;;29.20;16.50;;;;;;;5.08;86.38;98725.11;104558;1264;97925;-67
2023/04/17 04:06:56;;;;;;;27.90;16.00;;;;;;;5.13;86.63;98729.27;104631;1259;98069;-68
2023/04/17 04:09:26;;;;;;;;;;;;;;;5.20;86.82;98729.66;104817;1271;112278;-67
2023/04/17 04:11:53;;;;;;;30.00;16.30;;;;;;;5.25;87.14;98732.85;104386;1257;98787;-65
2023/04/17 04:14:20;;;;;;;26.10;15.80;;;;;;;5.31;87.28;98731.62;104763;1262;98527;-67
2023/04/17 04:16:48;;;;;;;30.80;16.90;;;;;;;5.36;87.63;98731.55;105163;1275;98686;-68
2023/04/17 04:19:15;;;;;;;25.10;16.10;;;;;;;5.45;87.95;98736.96;105128;1256;97882;-64
2023/04/17 04:21:42;;;;;;;25.90;15.50;;;;;;;5.60;88.11;98738.36;105252;1267;98805;-65
2023/04/17 04:24:12;;;;;;;30.80;18.00;;;;;;;5.71;87.74;98732.77;105237;1267;97989;-65
2023/04/17 04:26:42;;;;;;;25.20;16.00;;;;;;;5.74;87.71;98739.22;105174;1258;108575;-65
2023/04/17 04:29:10;;;;;;;27.50;16.20;;;;;;;5.78;88.01;98742.63;105172;1256;99198;-65
2023/04/17 04:31:38;;;;;;;26.70;15.80;;;;;;;5.84;87.94;98741.52;105303;1267;99074;-64
2023/04/17 04:34:06;;;;;;;29.00;16.60;;;;;;;5.87;87.83;98736.53;105265;1256;97995;-64
2023/04/17 04:36:40;;;;;;;26.40;15.60;;;;;;;5.89;88.03;98738.48;104973;1262;99336;-64
2023/04/17 04:39:07;;;;;;;28.40;16.20;;;;;;;5.86;88.00;98744.48;105229;1264;108621;-64
2023/04/17 04:41:35;;;;;;;30.50;16.90;;;;;;;5.92;88.14;98741.89;105049;1275;98014;-65
2023/04/17 04:44:03;;;;;;;29.90;16.30;;;;;;;5.96;88.09;98744.92;105250;1267;98464;-65
2023/04/17 04:46:29;;;;;;;33.50;17.00;;;;;;;6.01;88.12;98747.23;105220;1269;98383;-65
2023/04/17 04:48:56;;;;;;;27.90;17.30;;;;;;;6.06;88.01;98753.23;105386;1257;97883;-65
2023/04/17 04:51:23;;;;;;;31.20;17.30;;;;;;;6.13;87.94;98750.08;105251;1256;97959;-65
2023/04/17 04:53:50;;;;;;;27.00;16.60;;;;;;;6.27;87.70;98747.81;105230;1266;97876;-65
2023/04/17 04:56:17;;;;;;;24.30;15.30;;;;;;;6.37;87.55;98746.40;105238;1256;97892;-66
2023/04/17 04:58:45;;;;;;;25.60;14.70;;;;;;;6.38;87.15;98747.46;105333;1256;97900;-66
2023/04/17 05:01:12;;;;;;;26.70;15.40;;;;;;;6.39;87.28;98744.73;105243;1255;108511;-66
2023/04/17 05:03:39;;;;;;;26.70;15.30;;;;;;;6.36;86.91;98748.79;105114;1253;99344;-66
2023/04/17 05:06:08;;;;;;;26.20;16.20;;;;;;;6.39;87.19;98752.14;105037;1253;99158;-66
2023/04/17 05:08:35;;;;;;;30.20;16.60;;;;;;;6.41;87.17;98755.29;105086;1257;112071;-68
2023/04/17 05:11:02;;;;;;;26.40;16.00;;;;;;;6.41;87.37;98757.46;105173;1253;97903;-65
2023/04/17 05:13:29;;;;;;;26.50;15.90;;;;;;;6.46;87.63;98760.15;105230;1254;97893;-65
2023/04/17 05:15:56;;;;;;;27.70;17.00;;;;;;;6.54;87.77;98755.19;105230;1267;97995;-65
2023/04/17 05:18:26;;;;;;;29.00;17.10;;;;;;;6.65;88.12;98755.42;105189;1257;99094;-65
2023/04/17 05:20:54;;;;;;;27.50;16.40;;;;;;;6.77;87.78;98761.75;105135;1256;97985;-65
2023/04/17 05:23:21;;;;;;;30.70;16.80;;;;;;;6.88;87.72;98764.59;105149;1267;97877;-65
2023/04/17 05:25:49;;;;;;;29.20;16.60;;;;;;;7.01;87.44;98764.52;105161;1254;98788;-64
2023/04/17 05:28:16;;;;;;;28.80;16.40;;;;;;;7.15;86.89;98769.80;104830;1261;98098;-65
2023/04/17 05:30:44;;;;;;;27.80;15.80;;;;;;;7.22;87.17;98769.11;105292;1256;97971;-65
2023/04/17 05:33:11;;;;;;;24.10;15.30;;;;;;;7.30;87.15;98771.60;105222;1264;97884;-66
2023/04/17 05:35:38;;;;;;;26.30;15.70;;;;;;;7.41;87.36;98772.30;105226;1268;98687;-66
2023/04/17 05:38:06;;;;;;;32.60;16.90;;;;;;;7.49;86.85;98772.05;105226;1267;97893;-65
2023/04/17 05:40:34;;;;;;;24.70;15.40;;;;;;;7.53;86.93;98768.23;105230;1252;97975;-66
2023/04/17 05:43:09;;;;;;;31.40;16.20;;;;;;;7.55;86.66;98767.98;105267;1256;97988;-65
2023/04/17 05:45:36;;;;;;;32.60;17.40;;;;;;;7.57;86.24;98769.17;105086;1259;111217;-65
2023/04/17 05:48:04;;;;;;;30.30;16.90;;;;;;;7.56;86.86;98771.92;105182;1261;99168;-65
2023/04/17 05:50:32;;;;;;;29.30;16.50;;;;;;;7.55;86.31;98770.29;105131;1269;108665;-65
2023/04/17 05:52:59;;;;;;;32.10;17.90;;;;;;;7.61;86.57;98768.74;105204;1253;97989;-65
2023/04/17 05:55:26;;;;;;;32.20;18.20;;;;;;;7.73;86.87;98768.77;105198;1256;98674;-65
2023/04/17 05:57:53;;;;;;;33.70;18.90;;;;;;;7.81;86.33;98766.48;105096;1258;98570;-64
2023/04/17 06:00:23;;;;;;;32.80;18.70;;;;;;;7.94;86.44;98771.88;104820;1272;98697;-65
2023/04/17 06:02:51;;;;;;;33.50;17.30;;;;;;;8.08;86.04;98769.08;105251;1275;98005;-65
2023/04/17 06:05:19;;;;;;;30.90;17.20;;;;;;;8.17;85.83;98769.39;105169;1256;97875;-65
2023/04/17 06:07:47;;;;;;;31.40;17.50;;;;;;;8.25;85.58;98771.58;105298;1256;99436;-64
2023/04/17 06:10:14;;;;;;;27.50;16.30;;;;;;;8.37;85.72;98770.84;105145;1253;97906;-65
2023/04/17 06:12:41;;;;;;;26.60;16.30;;;;;;;8.50;85.89;98770.06;105247;1257;97904;-66
2023/04/17 06:15:09;;;;;;;26.90;16.40;;;;;;;8.69;86.27;98775.02;105102;1275;98027;-66
2023/04/17 06:17:37;;;;;;;34.30;18.70;;;;;;;8.88;86.01;98778.71;104831;1268;99145;-65
2023/04/17 06:20:09;;;;;;;27.70;17.50;;;;;;;9.08;85.46;98782.14;105055;1253;97865;-66
2023/04/17 06:22:37;;;;;;;27.20;17.00;;;;;;;9.26;85.05;98779.75;105257;1253;112093;-65
2023/04/17 06:25:05;;;;;;;30.40;17.40;;;;;;;9.44;84.44;98784.50;105245;1268;99307;-66
2023/04/17 06:27:33;;;;;;;27.10;16.90;;;;;;;9.53;83.74;98777.70;105141;1275;109170;-66
2023/04/17 06:30:04;;;;;;;31.30;16.80;;;;;;;9.60;83.43;98782.38;105105;1258;97926;-64
2023/04/17 06:32:31;;;;;;;31.00;17.40;;;;;;;9.68;83.39;98786.48;105305;1267;99756;-66
2023/04/17 06:34:59;;;;;;;32.20;17.90;;;;;;;9.79;83.10;98785.19;105271;1254;113415;-67
2023/04/17 06:37:26;;;;;;;28.10;17.50;;;;;;;9.96;83.54;98784.01;105211;1256;99088;-65
2023/04/17 06:39:53;;;;;;;29.40;18.50;;;;;;;10.25;83.61;98781.80;105152;1256;99202;-65
2023/04/17 06:42:20;;;;;;;32.60;18.60;;;;;;;10.57;83.32;98781.70;105300;1256;98469;-66
2023/04/17 06:44:47;;;;;;;30.50;16.70;;;;;;;10.86;83.15;98777.27;105269;1264;99320;-67
2023/04/17 06:47:14;;;;;;;32.90;18.20;;;;;;;11.08;81.04;98782.11;105190;1257;99533;-66
2023/04/17 06:49:41;;;;;;;27.80;17.00;;;;;;;11.19;80.93;98785.00;105320;1256;99188;-66
2023/04/17 06:52:08;;;;;;;28.90;16.90;;;;;;;11.37;81.06;98776.31;105217;1273;99215;-66
2023/04/17 06:54:35;;;;;;;28.20;17.70;;;;;;;11.55;80.24;98781.90;105200;1256;97906;-66
2023/04/17 06:57:05;;;;;;;30.90;19.30;;;;;;;11.71;79.45;98785.96;105303;1258;98564;-66
2023/04/17 06:59:33;;;;;;;28.10;18.30;;;;;;;11.78;79.18;98787.89;105031;1254;315310;-66
2023/04/17 07:02:01;;;;;;;27.00;14.90;;;;;;;11.96;79.51;98791.69;105258;1257;108555;-66
2023/04/17 07:04:30;;;;;;;29.90;18.10;;;;;;;11.88;75.66;98796.63;104735;1258;98196;-66
2023/04/17 07:06:58;;;;;;;29.80;18.40;;;;;;;11.57;76.07;98801.83;105274;1273;99072;-66
2023/04/17 07:09:26;;;;;;;28.90;19.00;;;;;;;11.58;78.36;98803.16;105263;1253;112305;-66
2023/04/17 07:11:53;;;;;;;27.00;17.70;;;;;;;11.95;78.38;98805.86;105320;1256;101561;-66
2023/04/17 07:14:21;;;;;;;26.30;16.20;;;;;;;12.18;76.45;98805.73;105076;1256;99047;-65
2023/04/17 07:16:49;;;;;;;29.00;17.40;;;;;;;12.23;75.58;98808.60;105196;1267;97893;-65
2023/04/17 07:19:16;;;;;;;29.40;18.30;;;;;;;12.19;75.87;98815.92;105132;1254;97827;-66
2023/04/17 07:21:44;;;;;;;31.40;17.90;;;;;;;12.23;76.30;98819.20;105235;1255;98188;-66
2023/04/17 07:24:11;;;;;;;27.40;17.50;;;;;;;12.26;75.20;98818.61;105220;1256;99321;-66
2023/04/17 07:26:39;;;;;;;29.10;18.30;;;;;;;12.09;74.72;98825.37;105042;1256;98101;-66
2023/04/17 07:29:06;;;;;;;30.80;20.10;;;;;;;11.90;75.99;98824.05;105270;1266;98033;-66
2023/04/17 07:31:34;;;;;;;30.30;20.30;;;;;;;11.98;76.58;98824.52;105233;1267;97900;-66
2023/04/17 07:34:01;;;;;;;31.50;19.60;;;;;;;12.06;76.65;98824.73;105293;1256;97870;-66
2023/04/17 07:36:28;;;;;;;30.90;19.50;;;;;;;12.11;76.07;98827.15;105244;1257;97896;-65
2023/04/17 07:38:56;;;;;;;37.10;21.80;;;;;;;11.92;75.75;98830.60;105264;1253;97908;-65
2023/04/17 07:41:24;;;;;;;33.80;21.40;;;;;;;11.95;76.97;98829.92;105233;1256;97842;-65
2023/04/17 07:43:51;;;;;;;29.20;19.30;;;;;;;12.19;77.15;98833.28;105327;1269;98390;-65
2023/04/17 07:46:18;;;;;;;29.90;20.00;;;;;;;12.41;76.24;98836.02;105237;1254;97912;-65
2023/04/17 07:48:45;;;;;;;30.40;19.20;;;;;;;12.54;75.48;98838.63;105070;1256;99227;-65
2023/04/17 07:51:13;;;;;;;32.40;19.60;;;;;;;12.61;75.95;98837.20;105149;1257;99256;-66
2023/04/17 07:53:40;;;;;;;34.80;22.20;;;;;;;12.70;74.99;98838.40;105214;1256;98785;-66
2023/04/17 07:56:07;;;;;;;36.70;23.00;;;;;;;12.73;75.14;98846.34;105237;1258;97951;-66
2023/04/17 07:58:37;;;;;;;37.60;22.80;;;;;;;12.78;75.16;98843.41;105313;1256;112391;-66
2023/04/17 08:01:04;;;;;;;43.30;23.80;;;;;;;12.91;75.37;98846.26;105295;1267;99260;-66
2023/04/17 08:03:32;;;;;;;36.90;23.00;;;;;;;13.11;75.22;98843.80;105052;1259;108452;-67
2023/04/17 08:06:00;;;;;;;34.80;21.30;;;;;;;13.40;75.07;98836.69;105225;1254;97960;-66
2023/04/17 08:08:28;;;;;;;38.90;23.00;;;;;;;13.61;73.97;98838.55;105262;1255;97980;-66
2023/04/17 08:10:55;;;;;;;36.70;24.10;;;;;;;13.65;73.07;98839.40;105277;1256;111872;-66
2023/04/17 08:13:22;;;;;;;40.00;23.80;;;;;;;13.54;73.10;98839.98;105267;1258;97983;-66
2023/04/17 08:15:50;;;;;;;41.20;26.00;;;;;;;13.70;73.69;98842.12;105254;1257;97909;-66
2023/04/17 08:18:18;;;;;;;38.40;24.10;;;;;;;14.02;73.33;98841.66;105315;1258;97986;-65
2023/04/17 08:20:45;;;;;;;38.80;23.70;;;;;;;14.20;71.85;98842.90;105304;1252;97953;-66
2023/04/17 08:23:12;;;;;;;42.90;26.00;;;;;;;14.17;71.36;98843.92;105289;1258;97998;-66
2023/04/17 08:25:39;;;;;;;41.60;25.50;;;;;;;13.97;70.37;98847.05;105271;1268;97999;-66
2023/04/17 08:28:06;;;;;;;40.10;23.60;;;;;;;13.71;71.65;98850.14;105193;1256;99194;-67
2023/04/17 08:30:34;;;;;;;38.30;23.70;;;;;;;13.71;71.75;98848.95;105071;1270;98001;-66
2023/04/17 08:33:02;;;;;;;41.80;25.80;;;;;;;13.70;71.74;98849.67;105061;1253;98018;-67
2023/04/17 08:35:29;;;;;;;38.90;24.80;;;;;;;13.71;72.06;98849.63;105220;1256;97968;-67
2023/04/17 08:38:19;;;;;;;38.20;21.80;;;;;;;13.70;71.51;98848.21;105267;1269;97916;-66
2023/04/17 08:41:12;;;;;;;37.20;23.10;;;;;;;13.71;72.39;98850.29;105279;1254;108110;-67
2023/04/17 08:43:58;;;;;;;37.00;21.50;;;;;;;13.88;71.94;98848.45;104421;1254;97862;-67
2023/04/17 08:46:26;;;;;;;38.30;21.80;;;;;;;13.96;71.44;98847.96;105218;1256;99270;-66
2023/04/17 08:48:54;;;;;;;38.20;22.90;;;;;;;13.99;71.76;98846.36;105278;1256;112231;-66
2023/04/17 08:51:26;;;;;;;36.70;21.50;;;;;;;14.01;71.42;98846.13;105162;1268;99214;-66
2023/04/17 08:53:54;;;;;;;34.10;20.10;;;;;;;14.05;71.00;98841.23;105278;1253;108617;-64
2023/04/17 08:56:21;;;;;;;32.70;20.50;;;;;;;14.02;70.64;98838.68;104972;1261;98077;-65
2023/04/17 08:58:48;;;;;;;32.00;20.70;;;;;;;14.05;71.05;98842.58;105241;1257;98427;-67
2023/04/17 09:01:17;;;;;;;33.90;21.50;;;;;;;14.05;70.60;98842.27;104995;1261;111959;-65
2023/04/17 09:03:47;;;;;;;41.50;24.00;;;;;;;14.15;71.65;98834.54;105044;1270;99596;-65
2023/04/17 09:06:15;;;;;;;37.00;22.20;;;;;;;14.28;71.84;98833.32;105042;1257;108844;-66
2023/04/17 09:09:00;;;;;;;40.90;23.20;;;;;;;14.37;70.88;98830.98;105179;1256;97900;-66
2023/04/17 09:11:27;;;;;;;39.90;22.40;;;;;;;14.46;70.48;98834.15;105065;1260;99760;-67
2023/04/17 09:13:55;;;;;;;39.20;22.30;;;;;;;14.50;70.45;98833.59;105020;1253;98121;-67
2023/04/17 09:16:24;;;;;;;34.90;21.00;;;;;;;14.47;69.66;98836.95;105247;1258;99263;-65
2023/04/17 09:19:04;;;;;;;36.20;22.80;;;;;;;14.52;70.29;98834.20;104940;1257;108362;-66
2023/04/17 09:21:31;;;;;;;35.70;20.60;;;;;;;14.67;69.82;98831.77;105233;1256;98801;-66
2023/04/17 09:23:59;;;;;;;37.60;22.50;;;;;;;14.80;69.62;98832.67;105193;1264;97886;-66
2023/04/17 09:26:30;;;;;;;36.60;21.90;;;;;;;14.88;69.44;98832.02;105206;1256;97942;-66
2023/04/17 09:29:13;;;;;;;36.70;21.90;;;;;;;15.06;69.88;98830.19;105160;1257;99181;-66
2023/04/17 09:31:41;;;;;;;35.30;20.30;;;;;;;15.34;69.34;98828.93;104979;1260;107494;-66
2023/04/17 09:34:11;;;;;;;36.40;21.60;;;;;;;15.39;68.54;98827.85;105242;1254;97878;-66
2023/04/17 09:36:40;;;;;;;37.50;21.40;;;;;;;15.43;68.69;98821.53;105136;1257;99327;-66
2023/04/17 09:39:23;;;;;;;32.50;20.00;;;;;;;15.49;68.07;98823.54;104944;1260;111358;-66
2023/04/17 09:42:11;;;;;;;30.50;17.60;;;;;;;15.36;68.28;98822.77;105180;1256;100177;-66
2023/04/17 09:44:41;;;;;;;32.10;20.80;;;;;;;15.11;67.91;98822.70;105168;1253;108582;-66
2023/04/17 09:47:17;;;;;;;34.70;21.30;;;;;;;15.07;68.59;98820.60;105266;1256;97924;-66
2023/04/17 09:49:55;;;;;;;36.90;22.50;;;;;;;15.06;68.50;98821.98;105051;1253;99076;-66
2023/04/17 09:52:31;;;;;;;45.10;24.30;;;;;;;14.97;68.58;98817.32;105122;1256;112278;-66
2023/04/17 09:55:05;;;;;;;33.60;19.60;;;;;;;14.84;68.71;98816.59;105146;1268;99041;-66
2023/04/17 09:57:42;;;;;;;35.50;21.10;;;;;;;14.74;68.88;98816.98;105285;1257;107250;-65
2023/04/17 10:00:13;;;;;;;34.00;21.30;;;;;;;14.74;69.19;98815.22;105224;1256;97947;-65
2023/04/17 10:02:41;;;;;;;35.10;21.10;;;;;;;14.74;69.14;98813.11;104994;1259;98208;-66
2023/04/17 10:05:12;;;;;;;32.70;19.60;;;;;;;14.85;69.25;98812.77;104787;1262;111349;-65
2023/04/17 10:07:39;;;;;;;;;;;;;;;14.99;68.89;98806.77;105054;1254;98929;-66
2023/04/17 10:10:32;;;;;;;32.60;19.20;;;;;;;15.07;68.77;98805.08;105151;1275;99191;-66
2023/04/17 10:13:02;;;;;;;30.70;18.30;;;;;;;15.20;68.39;98803.32;104944;1256;98025;-66
2023/04/17 10:15:31;;;;;;;30.70;18.70;;;;;;;15.33;68.18;98799.09;105228;1253;97878;-66
2023/04/17 10:18:18;;;;;;;30.30;19.30;;;;;;;15.42;67.93;98797.60;105281;1256;111790;-66
2023/04/17 10:20:47;;;;;;;28.50;17.50;;;;;;;15.37;67.87;98798.45;105185;1268;99316;-67
2023/04/17 10:23:32;;;;;;;31.30;19.20;;;;;;;15.29;68.00;98796.59;105012;1256;108403;-66
2023/04/17 10:26:25;;;;;;;30.90;18.30;;;;;;;15.22;68.32;98800.67;105040;1263;97870;-67
2023/04/17 10:28:56;;;;;;;30.10;18.50;;;;;;;15.08;68.18;98795.27;104882;1253;98189;-66
2023/04/17 10:32:02;;;;;;;29.70;19.20;;;;;;;14.92;68.60;98793.42;104862;1262;111041;-66
2023/04/17 10:34:37;;;;;;;27.30;18.80;;;;;;;14.71;69.10;98791.81;104948;1253;98979;-66
2023/04/17 10:37:05;;;;;;;28.90;18.40;;;;;;;14.54;70.46;98788.40;105162;1256;108726;-72
2023/04/17 10:39:55;;;;;;;29.40;18.90;;;;;;;14.35;71.68;98783.88;105226;1269;97909;-66
2023/04/17 10:42:24;;;;;;;26.80;17.90;;;;;;;14.20;72.79;98778.90;104982;1262;99394;-67
2023/04/17 10:44:57;;;;;;;26.70;17.40;;;;;;;14.07;73.07;98776.07;104992;1253;111307;-67
2023/04/17 10:47:34;;;;;;;27.20;16.60;;;;;;;14.01;73.80;98773.94;105220;1256;99182;-66
2023/04/17 10:50:03;;;;;;;26.10;17.20;;;;;;;13.92;73.68;98772.83;105227;1258;108422;-66
2023/04/17 10:52:33;;;;;;;23.70;15.60;;;;;;;13.89;74.14;98766.23;105109;1256;98788;-66
2023/04/17 10:55:25;;;;;;;27.30;17.00;;;;;;;13.82;73.98;98754.94;105277;1256;98707;-67
2023/04/17 10:57:56;;;;;;;24.60;16.40;;;;;;;13.76;74.01;98752.11;105255;1256;112382;-66
2023/04/17 11:00:35;;;;;;;;;;;;;;;13.70;74.35;98750.94;104875;1261;98727;-67
2023/04/17 11:03:04;;;;;;;22.20;14.40;;;;;;;13.54;74.40;98754.40;105237;1256;108493;-67
2023/04/17 11:05:34;;;;;;;21.80;14.40;;;;;;;13.44;74.75;98757.23;105125;1256;98812;-67
2023/04/17 11:08:01;;;;;;;22.80;14.60;;;;;;;13.32;75.76;98759.66;105110;1256;99717;-67
2023/04/17 11:10:29;;;;;;;27.40;15.00;;;;;;;13.20;76.53;98764.08;105094;1272;112243;-67
2023/04/17 11:13:02;;;;;;;49.00;23.60;;;;;;;13.05;76.57;98764.11;104908;1261;98050;-67
2023/04/17 11:15:39;;;;;;;33.10;17.90;;;;;;;12.92;77.14;98763.39;105192;1253;108170;-67
2023/04/17 11:18:07;;;;;;;29.80;17.80;;;;;;;12.95;77.25;98761.92;105248;1256;99189;-67
2023/04/17 11:20:36;;;;;;;49.30;26.10;;;;;;;13.00;77.83;98762.46;104938;1261;98458;-68
2023/04/17 11:23:05;;;;;;;58.20;28.30;;;;;;;12.92;78.29;98755.40;105033;1262;110767;-69
2023/04/17 11:25:33;;;;;;;47.30;24.50;;;;;;;12.84;78.77;98762.11;105244;1254;99448;-70